Time;durP1;ratioP1;P1;durP2;ratioP2;P2;SDS_P1;SDS_P2;PMS_P1;PMS_P2;Temp;Humidity;BMP_temperature;BMP_pressure;BME280_temperature;BME280_humidity;BME280_pressure;Samples;Min_cycle;Max_cycle;Signal;HPM_P1;HPM_P2
2021/10/09 00:01:49;;;;;;;16.67;11.00;;;9.10;99.90;;;;;;5016334;28;20473;-89
2021/10/09 00:04:15;;;;;;;15.75;10.75;;;9.10;99.90;;;;;;5016004;28;20450;-89
2021/10/09 00:06:41;;;;;;;14.10;10.27;;;9.00;99.90;;;;;;5015792;28;20527;-89
2021/10/09 00:09:09;;;;;;;15.90;10.15;;;8.90;99.90;;;;;;5016185;28;20477;-89
2021/10/09 00:11:37;;;;;;;16.33;10.85;;;9.10;99.90;;;;;;5016780;28;20021;-89
2021/10/09 00:14:04;;;;;;;14.02;10.60;;;9.00;99.90;;;;;;5016530;28;20434;-89
2021/10/09 00:16:30;;;;;;;16.85;11.85;;;9.00;99.90;;;;;;5015462;28;20061;-89
2021/10/09 00:18:56;;;;;;;15.90;10.13;;;9.00;99.90;;;;;;5033544;28;20068;-89
2021/10/09 00:21:21;;;;;;;18.20;12.25;;;8.90;99.90;;;;;;5015620;28;20048;-88
2021/10/09 00:23:48;;;;;;;15.50;11.75;;;8.70;99.90;;;;;;5017090;28;20500;-89
2021/10/09 00:26:14;;;;;;;17.33;11.68;;;8.60;99.90;;;;;;5019727;28;20063;-89
2021/10/09 00:28:40;;;;;;;17.55;11.05;;;8.60;99.90;;;;;;5019891;28;20121;-89
2021/10/09 00:31:06;;;;;;;15.50;10.88;;;8.50;99.90;;;;;;5037815;28;20061;-90
2021/10/09 00:33:31;;;;;;;15.05;10.70;;;8.70;99.90;;;;;;5020699;28;20025;-89
2021/10/09 00:35:57;;;;;;;14.82;9.93;;;8.90;99.90;;;;;;5021999;28;20027;-89
2021/10/09 00:38:23;;;;;;;14.82;9.43;;;9.00;99.90;;;;;;5021453;28;20032;-89
2021/10/09 00:40:49;;;;;;;16.83;10.35;;;9.10;99.90;;;;;;5020273;28;20028;-89
2021/10/09 00:43:14;;;;;;;18.25;11.63;;;8.90;99.90;;;;;;5019832;28;20026;-89
2021/10/09 00:45:52;;;;;;;14.48;10.50;;;8.90;99.90;;;;;;5019561;28;20091;-89
2021/10/09 00:48:18;;;;;;;16.35;11.15;;;9.00;99.90;;;;;;5019632;28;20408;-88
2021/10/09 00:50:44;;;;;;;13.15;10.05;;;8.90;99.90;;;;;;5019417;28;20051;-89
2021/10/09 00:53:12;;;;;;;17.92;11.07;;;8.90;99.90;;;;;;5019968;28;20496;-88
2021/10/09 00:55:39;;;;;;;15.63;10.75;;;8.90;99.90;;;;;;5036945;28;20409;-89
2021/10/09 00:58:07;;;;;;;15.57;10.90;;;8.70;99.90;;;;;;5020130;28;20021;-88
2021/10/09 01:00:33;;;;;;;14.05;9.68;;;8.80;99.90;;;;;;5019229;28;20053;-88
2021/10/09 01:02:59;;;;;;;18.60;11.70;;;8.50;99.90;;;;;;5019038;28;20017;-88
2021/10/09 01:05:27;;;;;;;12.40;9.63;;;8.70;99.90;;;;;;5019237;28;20075;-89
2021/10/09 01:07:52;;;;;;;22.05;11.15;;;8.70;99.90;;;;;;5019409;28;20370;-89
2021/10/09 01:10:18;;;;;;;18.17;12.13;;;8.50;99.90;;;;;;5019033;28;20091;-88
2021/10/09 01:12:44;;;;;;;13.98;10.68;;;8.50;99.90;;;;;;5036740;28;20560;-88
2021/10/09 01:15:21;;;;;;;21.23;11.70;;;8.60;99.90;;;;;;5018753;28;20497;-88
2021/10/09 01:17:47;;;;;;;14.68;11.23;;;8.70;99.90;;;;;;5018876;28;20022;-89
2021/10/09 01:20:14;;;;;;;16.40;10.00;;;8.70;99.90;;;;;;5018862;28;20022;-89
2021/10/09 01:22:41;;;;;;;12.82;9.43;;;8.90;99.90;;;;;;5018875;28;20025;-88
2021/10/09 01:25:08;;;;;;;13.55;10.18;;;8.90;99.90;;;;;;5018719;28;20503;-89
2021/10/09 01:27:34;;;;;;;19.15;10.60;;;9.00;99.90;;;;;;5018708;28;20025;-89
2021/10/09 01:30:01;;;;;;;16.85;10.77;;;8.80;99.90;;;;;;5018616;28;20057;-89
2021/10/09 01:32:27;;;;;;;15.63;10.45;;;8.70;99.90;;;;;;5018916;28;20505;-89
2021/10/09 01:34:52;;;;;;;16.40;10.10;;;8.60;99.90;;;;;;5018012;28;20160;-89
2021/10/09 01:37:18;;;;;;;16.35;10.98;;;8.60;99.90;;;;;;5018560;28;20056;-89
2021/10/09 01:39:46;;;;;;;17.25;11.05;;;8.70;99.90;;;;;;5018525;28;20481;-88
2021/10/09 01:42:12;;;;;;;15.77;10.82;;;8.80;99.90;;;;;;5018562;28;20469;-89
2021/10/09 01:44:38;;;;;;;15.68;10.65;;;8.60;99.90;;;;;;5018521;28;20032;-89
2021/10/09 01:47:04;;;;;;;12.57;9.30;;;8.70;99.90;;;;;;5018459;28;20135;-90
2021/10/09 01:49:31;;;;;;;16.40;11.90;;;9.00;99.90;;;;;;5036233;28;20105;-89
2021/10/09 01:51:57;;;;;;;15.10;11.65;;;8.70;99.90;;;;;;5018353;28;20030;-88
2021/10/09 01:54:22;;;;;;;19.02;11.43;;;8.30;99.90;;;;;;5035997;28;20047;-88
2021/10/09 01:56:49;;;;;;;13.95;10.93;;;8.00;99.90;;;;;;5018225;28;20037;-88
2021/10/09 01:59:15;;;;;;;12.25;9.27;;;8.30;99.90;;;;;;5018195;28;20366;-89
2021/10/09 02:01:41;;;;;;;13.27;9.35;;;8.20;99.90;;;;;;5017867;28;20033;-89
2021/10/09 02:04:07;;;;;;;15.25;11.15;;;8.70;99.90;;;;;;5017927;28;20080;-89
2021/10/09 02:06:33;;;;;;;15.15;11.15;;;9.00;99.90;;;;;;5017878;28;20481;-89
2021/10/09 02:08:58;;;;;;;14.77;10.55;;;9.10;99.90;;;;;;5035515;28;20033;-89
2021/10/09 02:11:34;;;;;;;18.45;10.50;;;8.90;99.90;;;;;;5017623;28;20086;-88
2021/10/09 02:14:13;;;;;;;12.30;9.57;;;8.60;99.90;;;;;;5017738;28;20021;-88
2021/10/09 02:17:08;;;;;;;12.50;9.00;;;8.80;99.90;;;;;;5017640;28;20163;-89
2021/10/09 02:27:29;;;;;;;15.95;10.55;;;8.80;99.90;;;;;;5035853;28;20053;-90
2021/10/09 02:29:55;;;;;;;13.07;9.95;;;8.90;99.90;;;;;;5017789;28;20060;-89
2021/10/09 02:32:20;;;;;;;17.25;10.95;;;8.90;99.90;;;;;;5017497;28;20123;-88
2021/10/09 02:34:46;;;;;;;16.27;10.55;;;9.00;99.90;;;;;;5017480;28;20018;-89
2021/10/09 02:37:12;;;;;;;16.92;11.60;;;8.70;99.90;;;;;;5018418;28;20028;-89
2021/10/09 02:39:38;;;;;;;18.23;11.68;;;8.40;99.90;;;;;;5017283;28;20596;-89
2021/10/09 02:42:03;;;;;;;12.95;9.30;;;8.00;99.90;;;;;;5017347;28;20029;-88
2021/10/09 02:44:29;;;;;;;15.65;11.43;;;8.10;99.90;;;;;;5017629;28;20022;-88
2021/10/09 02:46:55;;;;;;;17.85;10.85;;;8.30;99.90;;;;;;5017583;28;20032;-88
2021/10/09 02:49:21;;;;;;;15.05;10.13;;;8.10;99.90;;;;;;5017562;28;20036;-89
2021/10/09 02:51:46;;;;;;;12.88;9.25;;;8.30;99.90;;;;;;5017183;28;20025;-89
2021/10/09 02:54:12;;;;;;;13.60;10.25;;;8.40;99.90;;;;;;5017023;28;20045;-89
2021/10/09 02:56:37;;;;;;;13.80;10.07;;;8.50;99.90;;;;;;5016993;28;20026;-89
2021/10/09 02:59:03;;;;;;;17.17;10.02;;;8.40;99.90;;;;;;5017130;28;20076;-89
2021/10/09 03:01:29;;;;;;;16.52;10.93;;;8.40;99.90;;;;;;5016958;28;20032;-89
2021/10/09 03:03:54;;;;;;;13.48;10.05;;;8.00;99.90;;;;;;5017057;28;20022;-89
2021/10/09 03:06:20;;;;;;;15.75;10.73;;;7.90;99.90;;;;;;5016934;28;20029;-89
2021/10/09 03:08:46;;;;;;;17.80;11.02;;;8.10;99.90;;;;;;5016964;28;20032;-89
2021/10/09 03:11:12;;;;;;;16.38;10.05;;;8.30;99.90;;;;;;5016848;28;20116;-89
2021/10/09 03:13:37;;;;;;;16.30;11.32;;;8.20;99.90;;;;;;5016895;28;20040;-89
2021/10/09 03:16:03;;;;;;;12.00;9.27;;;8.20;99.90;;;;;;5016632;28;20083;-89
2021/10/09 03:18:29;;;;;;;15.43;10.65;;;8.20;99.90;;;;;;5016625;28;20374;-89
2021/10/09 03:20:54;;;;;;;17.63;11.20;;;8.10;99.90;;;;;;5016613;28;20507;-90
2021/10/09 03:23:20;;;;;;;15.43;11.25;;;8.10;99.90;;;;;;5016850;28;20036;-90
2021/10/09 03:25:46;;;;;;;16.92;11.05;;;8.10;99.90;;;;;;5016788;28;20424;-91
2021/10/09 03:28:12;;;;;;;13.80;9.75;;;7.90;99.90;;;;;;5016568;28;20025;-89
2021/10/09 03:30:37;;;;;;;18.77;11.43;;;7.90;99.90;;;;;;5016514;28;20022;-90
2021/10/09 03:33:03;;;;;;;12.85;9.82;;;7.90;99.90;;;;;;5016768;28;20504;-90
2021/10/09 03:35:29;;;;;;;12.82;9.40;;;8.10;99.90;;;;;;5034436;28;20022;-90
2021/10/09 03:37:54;;;;;;;17.75;11.10;;;8.20;99.90;;;;;;5016271;28;20017;-91
2021/10/09 03:40:22;;;;;;;18.35;10.52;;;8.00;99.90;;;;;;5016314;28;20056;-89
2021/10/09 03:42:53;;;;;;;20.17;11.57;;;7.80;99.90;;;;;;5017037;28;20083;-90
2021/10/09 03:45:28;;;;;;;13.68;10.30;;;8.00;99.90;;;;;;5016401;28;20044;-90
2021/10/09 03:50:32;;;;;;;16.08;10.55;;;8.00;99.90;;;;;;5034523;28;20013;-90
2021/10/09 03:52:58;;;;;;;14.32;9.90;;;8.20;99.90;;;;;;5033889;28;20021;-90
2021/10/09 03:55:24;;;;;;;14.75;10.40;;;8.20;99.90;;;;;;5015950;28;20152;-90
2021/10/09 03:57:49;;;;;;;13.95;9.50;;;8.00;99.90;;;;;;5015685;28;20120;-90
2021/10/09 04:00:19;;;;;;;13.88;9.57;;;7.90;99.90;;;;;;5033761;28;20025;-90
2021/10/09 04:02:45;;;;;;;20.35;10.95;;;8.20;99.90;;;;;;5016218;28;20033;-90
2021/10/09 04:05:11;;;;;;;15.18;11.32;;;8.20;99.90;;;;;;5016020;28;20021;-90
2021/10/09 04:07:37;;;;;;;18.20;11.40;;;7.90;99.90;;;;;;5016085;28;20084;-90
2021/10/09 04:10:04;;;;;;;17.85;10.52;;;8.10;99.90;;;;;;5015962;28;20026;-90
2021/10/09 04:12:30;;;;;;;15.27;10.77;;;8.10;99.90;;;;;;5016022;28;20021;-90
2021/10/09 04:14:56;;;;;;;14.95;8.88;;;8.30;99.90;;;;;;5017069;28;20536;-91
2021/10/09 04:17:21;;;;;;;14.25;10.32;;;8.50;99.90;;;;;;5016522;28;20079;-92
2021/10/09 04:19:47;;;;;;;19.33;9.93;;;8.20;99.90;;;;;;5016458;28;20437;-92
2021/10/09 04:22:13;;;;;;;21.13;12.07;;;8.10;99.90;;;;;;5016522;28;20485;-91
2021/10/09 04:24:39;;;;;;;15.55;9.95;;;7.80;99.90;;;;;;5016523;28;20125;-91
2021/10/09 04:27:05;;;;;;;16.42;11.00;;;7.60;99.90;;;;;;5016551;28;20033;-91
2021/10/09 04:29:30;;;;;;;14.25;9.77;;;7.60;99.90;;;;;;5016257;28;20112;-91
2021/10/09 04:31:56;;;;;;;17.00;10.13;;;7.90;99.90;;;;;;5016251;28;20465;-93
2021/10/09 04:34:22;;;;;;;16.02;10.57;;;7.90;99.90;;;;;;5016352;28;20120;-92
2021/10/09 04:36:48;;;;;;;16.98;10.48;;;7.70;99.90;;;;;;5016291;28;20480;-91
2021/10/09 04:39:14;;;;;;;15.85;10.18;;;7.50;99.90;;;;;;5033943;28;20100;-92
2021/10/09 04:41:39;;;;;;;15.57;10.07;;;7.70;99.90;;;;;;5033614;28;20033;-92
2021/10/09 04:44:05;;;;;;;16.38;10.18;;;8.00;99.90;;;;;;5016123;28;20022;-91
2021/10/09 04:46:31;;;;;;;16.48;10.07;;;8.10;99.90;;;;;;5016525;28;20400;-92
2021/10/09 04:48:57;;;;;;;15.10;9.55;;;8.00;99.90;;;;;;5016342;28;20030;-91
2021/10/09 04:51:26;;;;;;;16.30;10.95;;;8.20;99.90;;;;;;5016263;28;20025;-91
2021/10/09 04:53:52;;;;;;;16.83;10.40;;;8.20;99.90;;;;;;5016190;28;20053;-92
2021/10/09 04:56:18;;;;;;;15.05;10.48;;;7.90;99.90;;;;;;5016959;28;20477;-91
2021/10/09 04:58:43;;;;;;;13.52;9.77;;;7.80;99.90;;;;;;5016775;28;20025;-91
2021/10/09 05:01:09;;;;;;;17.85;10.07;;;8.00;99.90;;;;;;5035000;28;20543;-92
2021/10/09 05:03:35;;;;;;;13.77;9.52;;;8.10;99.90;;;;;;5016651;28;20041;-91
2021/10/09 05:06:01;;;;;;;14.07;8.88;;;8.20;99.90;;;;;;5016612;28;20029;-91
2021/10/09 05:08:27;;;;;;;16.45;10.15;;;8.40;99.90;;;;;;5016358;28;20369;-91
2021/10/09 05:10:52;;;;;;;15.18;9.48;;;8.60;99.90;;;;;;5019066;28;20104;-91
2021/10/09 05:13:18;;;;;;;15.20;10.00;;;8.20;99.90;;;;;;5019921;28;20029;-91
2021/10/09 05:15:45;;;;;;;15.45;9.80;;;8.00;99.90;;;;;;5019595;28;20090;-92
2021/10/09 05:18:11;;;;;;;15.40;10.55;;;8.00;99.90;;;;;;5019688;28;20485;-92
2021/10/09 05:20:39;;;;;;;13.25;9.27;;;8.20;99.90;;;;;;5020090;28;20484;-92
2021/10/09 05:23:06;;;;;;;15.75;9.68;;;8.20;99.90;;;;;;5019522;28;20465;-92
2021/10/09 05:25:33;;;;;;;17.20;10.02;;;8.00;99.90;;;;;;5019772;28;20057;-92
2021/10/09 05:28:06;;;;;;;17.48;10.60;;;7.70;99.90;;;;;;5020906;28;20030;-92
2021/10/09 05:30:33;;;;;;;13.38;9.65;;;7.70;99.90;;;;;;5019632;28;20456;-92
2021/10/09 05:33:13;;;;;;;13.40;9.80;;;7.80;99.90;;;;;;5019492;28;20025;-92
2021/10/09 05:35:39;;;;;;;18.25;11.35;;;7.90;99.90;;;;;;5019371;28;20032;-91
2021/10/09 05:38:05;;;;;;;17.63;11.30;;;8.10;99.90;;;;;;5019315;28;20125;-92
2021/10/09 05:40:30;;;;;;;13.48;9.25;;;7.30;99.90;;;;;;5019465;28;20061;-92
2021/10/09 05:42:56;;;;;;;15.82;10.45;;;7.70;99.90;;;;;;5019343;28;20460;-92
2021/10/09 05:45:22;;;;;;;12.23;8.65;;;7.70;99.90;;;;;;5019142;28;20021;-92
2021/10/09 05:47:50;;;;;;;17.17;10.35;;;7.90;99.90;;;;;;5019269;28;20029;-92
2021/10/09 05:50:16;;;;;;;19.27;10.65;;;7.90;99.90;;;;;;5019397;28;20462;-93
2021/10/09 05:52:49;;;;;;;15.05;9.60;;;7.70;99.90;;;;;;5019569;28;20018;-92
2021/10/09 05:55:21;;;;;;;12.80;9.88;;;7.90;99.90;;;;;;5015941;28;20512;-91
2021/10/09 06:47:05;;;;;;;15.15;10.00;;;8.40;99.90;;;;;;5016138;28;20388;-92
2021/10/09 07:00:17;;;;;;;18.33;10.88;;;8.60;99.90;;;;;;5035945;28;20103;-92
2021/10/09 07:02:43;;;;;;;16.17;10.80;;;8.60;99.90;;;;;;5017859;28;20029;-92
2021/10/09 07:05:10;;;;;;;20.90;10.93;;;8.60;99.90;;;;;;5018071;28;20540;-91
2021/10/09 07:08:04;;;;;;;14.52;10.30;;;8.40;99.90;;;;;;5018612;28;20369;-90
2021/10/09 07:10:22;;;;;;;15.43;10.50;;;8.40;99.90;;;;;;5035094;28;20034;-91
2021/10/09 07:12:48;;;;;;;18.52;10.93;;;8.60;99.90;;;;;;5027086;28;20094;-91
2021/10/09 07:15:18;;;;;;;20.23;10.90;;;8.60;99.90;;;;;;5025438;28;20401;-91
2021/10/09 07:17:45;;;;;;;16.33;10.07;;;8.90;99.90;;;;;;5019018;28;20040;-91
2021/10/09 07:20:11;;;;;;;33.05;12.60;;;9.00;99.90;;;;;;5017882;28;20026;-92
2021/10/09 07:22:37;;;;;;;15.65;10.43;;;9.00;99.90;;;;;;5017529;28;20028;-91
2021/10/09 07:25:04;;;;;;;22.38;10.98;;;9.00;99.90;;;;;;5018167;28;20527;-91
2021/10/09 07:27:34;;;;;;;20.33;11.77;;;9.20;99.90;;;;;;5034603;28;20030;-91
2021/10/09 07:29:59;;;;;;;20.55;11.88;;;9.40;99.90;;;;;;5017001;28;20028;-92
2021/10/09 07:32:26;;;;;;;17.75;11.75;;;9.60;99.90;;;;;;5016715;28;20030;-91
2021/10/09 07:34:51;;;;;;;13.98;9.63;;;9.90;99.90;;;;;;5016506;28;20025;-91
2021/10/09 07:37:17;;;;;;;17.85;11.77;;;10.00;99.90;;;;;;5016739;28;20370;-91
2021/10/09 07:39:43;;;;;;;18.40;11.48;;;10.30;99.90;;;;;;5017014;28;20022;-91
2021/10/09 07:42:09;;;;;;;26.15;11.70;;;10.50;99.90;;;;;;5017104;28;20025;-91
2021/10/09 07:44:34;;;;;;;17.63;11.90;;;10.40;99.90;;;;;;5034456;28;20025;-90
2021/10/09 07:47:01;;;;;;;17.48;11.18;;;10.60;99.90;;;;;;5016923;28;20025;-91
2021/10/09 07:49:27;;;;;;;18.10;11.18;;;10.70;99.90;;;;;;5016622;28;20519;-91
2021/10/09 07:51:53;;;;;;;24.15;12.80;;;10.90;99.90;;;;;;5016709;28;20021;-91
2021/10/09 07:54:18;;;;;;;21.75;13.38;;;10.80;99.90;;;;;;5016511;28;20045;-91
2021/10/09 07:56:44;;;;;;;25.50;12.57;;;10.70;99.90;;;;;;5016479;28;20386;-92
2021/10/09 07:59:10;;;;;;;16.95;9.85;;;10.90;99.90;;;;;;5016615;28;20025;-91
2021/10/09 08:01:35;;;;;;;18.10;10.32;;;11.10;99.90;;;;;;5016486;28;20025;-91
2021/10/09 08:04:01;;;;;;;15.38;10.35;;;11.40;99.90;;;;;;5016515;28;20599;-90
2021/10/09 08:06:27;;;;;;;16.83;10.80;;;11.70;99.90;;;;;;5016257;28;20116;-91
2021/10/09 08:08:53;;;;;;;23.67;13.25;;;11.90;99.90;;;;;;4999870;28;20489;-90
2021/10/09 08:11:19;;;;;;;17.00;8.68;;;11.80;99.90;;;;;;5016650;28;20034;-90
2021/10/09 08:13:45;;;;;;;16.83;10.88;;;12.20;99.90;;;;;;5016331;28;20029;-91
2021/10/09 08:16:11;;;;;;;21.55;12.13;;;12.40;99.90;;;;;;5016256;28;20527;-90
2021/10/09 08:18:37;;;;;;;20.48;12.25;;;12.10;99.90;;;;;;5016399;28;20030;-90
2021/10/09 08:21:06;;;;;;;23.88;11.35;;;12.10;99.90;;;;;;5016519;28;20021;-90
2021/10/09 08:23:49;;;;;;;16.45;11.23;;;12.30;99.90;;;;;;5016235;28;20021;-90
2021/10/09 08:39:43;;;;;;;20.38;12.20;;;13.00;99.90;;;;;;5033924;28;20075;-91
2021/10/09 08:42:10;;;;;;;16.60;10.95;;;13.10;99.90;;;;;;5016263;28;20075;-91
2021/10/09 08:44:38;;;;;;;26.52;12.70;;;13.10;99.90;;;;;;5016889;28;20021;-90
2021/10/09 08:47:04;;;;;;;19.73;11.35;;;13.10;99.90;;;;;;5019999;28;20029;-90
2021/10/09 08:49:32;;;;;;;24.40;12.85;;;13.30;99.90;;;;;;5019984;28;20440;-89
2021/10/09 08:51:59;;;;;;;22.02;13.32;;;13.30;99.90;;;;;;5020046;28;20035;-91
2021/10/09 08:54:37;;;;;;;22.35;12.68;;;13.30;99.90;;;;;;5019525;28;20049;-91
2021/10/09 08:57:15;;;;;;;19.73;10.85;;;13.60;99.90;;;;;;5019786;28;20076;-90
2021/10/09 09:00:12;;;;;;;17.15;10.25;;;13.70;99.90;;;;;;5019663;28;20079;-90
2021/10/09 09:02:44;;;;;;;25.08;11.73;;;14.00;99.90;;;;;;5019762;28;20099;-90
2021/10/09 09:05:33;;;;;;;22.05;12.38;;;14.20;99.90;;;;;;5020077;28;20060;-90
2021/10/09 09:30:57;;;;;;;25.92;12.70;;;15.40;99.90;;;;;;5038903;28;20033;-90
2021/10/09 09:41:22;;;;;;;18.70;10.90;;;15.80;99.90;;;;;;5036926;28;20018;-90
2021/10/09 09:43:53;;;;;;;18.60;11.38;;;16.00;99.90;;;;;;5019124;28;20095;-90
2021/10/09 09:46:24;;;;;;;26.27;11.43;;;15.80;99.90;;;;;;5018846;28;20119;-90
2021/10/09 09:48:50;;;;;;;19.48;11.30;;;15.90;99.90;;;;;;5019772;28;20540;-91
2021/10/09 09:51:18;;;;;;;22.77;10.32;;;15.90;99.90;;;;;;5037019;28;20539;-91
2021/10/09 09:53:46;;;;;;;23.98;11.45;;;16.10;99.90;;;;;;5019463;28;20099;-93
2021/10/09 09:56:14;;;;;;;19.35;10.18;;;16.30;99.90;;;;;;5018171;28;20034;-91
2021/10/09 09:58:48;;;;;;;19.42;10.73;;;16.30;99.90;;;;;;5019055;28;20049;-90
2021/10/09 10:01:15;;;;;;;18.05;10.50;;;16.40;99.90;;;;;;5018462;28;20489;-90
2021/10/09 10:03:46;;;;;;;24.52;11.13;;;16.70;99.90;;;;;;5018596;28;20028;-90
2021/10/09 10:06:12;;;;;;;19.50;10.30;;;16.80;99.90;;;;;;5018999;28;20055;-90
2021/10/09 10:08:41;;;;;;;20.95;10.57;;;16.90;99.90;;;;;;5018468;28;20025;-91
2021/10/09 10:11:09;;;;;;;21.73;10.50;;;17.00;99.90;;;;;;5018364;28;20164;-91
2021/10/09 10:13:35;;;;;;;19.00;10.15;;;16.90;99.90;;;;;;5018459;28;20037;-91
2021/10/09 10:16:09;;;;;;;17.73;10.25;;;17.20;99.90;;;;;;5018166;28;20035;-90
2021/10/09 10:18:43;;;;;;;23.58;9.98;;;17.40;99.90;;;;;;5035906;28;20100;-90
2021/10/09 10:21:10;;;;;;;16.02;8.98;;;17.80;99.90;;;;;;5018030;28;20021;-91
2021/10/09 10:23:41;;;;;;;19.65;9.13;;;17.70;99.90;;;;;;5018227;28;20029;-91
2021/10/09 10:26:21;;;;;;;23.42;9.50;;;17.90;99.90;;;;;;5018834;28;20041;-90
2021/10/09 10:28:53;;;;;;;18.98;9.07;;;18.10;99.90;;;;;;5035688;28;20033;-90
2021/10/09 10:31:19;;;;;;;18.85;8.98;;;18.20;99.90;;;;;;5017858;28;20029;-90
2021/10/09 10:34:01;;;;;;;20.00;8.68;;;18.40;99.90;;;;;;5017697;28;20029;-89
2021/10/09 10:36:44;;;;;;;16.60;8.48;;;18.50;99.90;;;;;;5017759;28;20025;-91
2021/10/09 10:39:11;;;;;;;11.33;8.03;;;18.90;99.90;;;;;;5035470;28;20026;-91
2021/10/09 10:41:44;;;;;;;14.60;7.72;;;19.00;99.90;;;;;;5035402;28;20271;-91
2021/10/09 10:44:43;;;;;;;13.18;7.93;;;19.00;99.90;;;;;;5018581;28;20026;-90
2021/10/09 10:47:46;;;;;;;13.43;8.45;;;19.20;99.90;;;;;;5018330;28;20117;-90
2021/10/09 10:50:42;;;;;;;17.98;8.27;;;19.40;99.90;;;;;;5017619;28;20029;-91
2021/10/09 10:53:12;;;;;;;14.07;8.13;;;19.90;99.90;;;;;;5018111;28;20487;-92
2021/10/09 10:56:10;;;;;;;12.38;8.13;;;19.70;99.90;;;;;;5035152;28;20131;-90
2021/10/09 10:58:37;;;;;;;15.02;7.28;;;19.50;99.90;;;;;;5017586;28;20021;-90
2021/10/09 11:01:25;;;;;;;14.48;7.38;;;19.60;99.90;;;;;;5035201;28;20025;-90
2021/10/09 11:03:53;;;;;;;14.70;7.30;;;19.80;99.90;;;;;;5017623;28;20022;-92
2021/10/09 11:06:21;;;;;;;15.75;7.57;;;20.10;99.90;;;;;;5017133;28;20025;-90
2021/10/09 11:08:49;;;;;;;18.65;8.52;;;20.10;99.90;;;;;;5017372;28;20030;-91
2021/10/09 11:11:16;;;;;;;13.30;7.43;;;20.50;99.90;;;;;;5017129;28;20052;-90
2021/10/09 11:13:47;;;;;;;15.07;7.47;;;20.60;99.90;;;;;;5017015;28;20116;-91
2021/10/09 11:16:12;;;;;;;11.63;7.68;;;20.90;99.90;;;;;;5017297;28;20083;-91
2021/10/09 11:18:52;;;;;;;12.50;6.85;;;21.00;99.90;;;;;;5034985;28;20474;-88
2021/10/09 11:21:19;;;;;;;15.90;7.57;;;21.10;99.90;;;;;;5034803;28;20056;-91
2021/10/09 11:23:58;;;;;;;19.33;7.63;;;20.90;99.90;;;;;;5017018;28;20033;-90
2021/10/09 11:26:25;;;;;;;16.50;7.22;;;20.70;99.90;;;;;;5017017;28;20028;-90
2021/10/09 11:29:04;;;;;;;15.48;6.75;;;21.00;99.90;;;;;;5017318;28;20072;-91
2021/10/09 11:31:29;;;;;;;16.30;7.28;;;21.20;99.90;;;;;;5017460;28;20025;-91
2021/10/09 11:33:58;;;;;;;13.15;6.10;;;21.40;99.90;;;;;;5019413;28;20056;-88
2021/10/09 11:36:25;;;;;;;18.08;8.40;;;21.70;99.90;;;;;;5019472;28;20022;-90
2021/10/09 11:39:14;;;;;;;12.70;6.22;;;21.90;99.30;;;;;;5017737;28;20018;-90
2021/10/09 11:41:43;;;;;;;12.43;7.00;;;22.10;99.70;;;;;;5035120;28;20017;-90
2021/10/09 11:44:34;;;;;;;15.30;6.45;;;21.90;99.40;;;;;;5034639;28;20465;-90
2021/10/09 11:55:21;;;;;;;15.68;7.45;;;22.30;98.30;;;;;;5034031;28;20516;-91
2021/10/09 11:57:49;;;;;;;10.88;6.47;;;22.30;98.20;;;;;;5016060;28;20030;-91
2021/10/09 12:00:31;;;;;;;15.60;5.90;;;22.70;96.90;;;;;;5016148;28;20436;-91
2021/10/09 12:03:01;;;;;;;10.35;5.13;;;23.40;95.40;;;;;;5033719;28;20492;-91
2021/10/09 12:05:47;;;;;;;10.50;5.45;;;23.80;93.50;;;;;;5016192;28;20021;-90
2021/10/09 12:08:40;;;;;;;7.65;4.82;;;23.40;93.20;;;;;;5016461;28;20476;-90
2021/10/09 12:11:30;;;;;;;12.85;5.30;;;23.30;93.70;;;;;;5033483;28;20079;-91
2021/10/09 12:13:59;;;;;;;10.10;5.03;;;23.40;91.80;;;;;;5016484;28;20029;-91
2021/10/09 12:16:27;;;;;;;16.38;5.13;;;23.60;91.00;;;;;;5016015;28;20033;-89
2021/10/09 12:19:14;;;;;;;8.23;4.30;;;23.80;90.80;;;;;;5015694;28;20014;-91
2021/10/09 12:21:53;;;;;;;9.93;4.78;;;24.20;90.20;;;;;;5016050;28;20022;-91
2021/10/09 12:24:22;;;;;;;9.63;5.05;;;24.50;88.40;;;;;;5016100;28;20029;-90
2021/10/09 12:27:04;;;;;;;11.38;4.95;;;24.90;90.50;;;;;;5016615;28;20027;-91
2021/10/09 12:29:31;;;;;;;9.52;4.60;;;24.50;86.30;;;;;;5016566;28;20021;-90
2021/10/09 12:32:15;;;;;;;7.53;3.75;;;24.10;87.20;;;;;;5016281;28;20033;-92
2021/10/09 12:34:42;;;;;;;10.68;4.75;;;23.70;88.20;;;;;;5016544;28;20112;-90
2021/10/09 12:37:27;;;;;;;10.70;5.40;;;23.90;84.90;;;;;;5016313;28;20396;-91
2021/10/09 12:40:05;;;;;;;;;;;24.20;85.20;;;;;;5016889;28;20022;-91
2021/10/09 12:42:31;;;;;;;8.68;4.50;;;24.20;81.00;;;;;;5016575;28;19927;-91
2021/10/09 12:44:57;;;;;;;10.65;4.65;;;24.30;83.90;;;;;;5016673;28;20026;-91
2021/10/09 12:47:22;;;;;;;6.25;4.00;;;24.10;82.70;;;;;;5016195;28;20029;-91
2021/10/09 12:49:48;;;;;;;7.40;4.20;;;23.70;82.20;;;;;;5016081;28;20107;-91
2021/10/09 12:52:14;;;;;;;10.80;4.65;;;24.00;82.80;;;;;;5015895;28;20025;-90
2021/10/09 12:54:39;;;;;;;9.60;4.82;;;24.70;81.10;;;;;;5015973;28;20041;-91
2021/10/09 12:57:06;;;;;;;10.60;4.47;;;25.20;79.00;;;;;;5016115;28;20025;-92
2021/10/09 12:59:34;;;;;;;8.38;4.47;;;25.00;78.10;;;;;;5015896;28;20026;-91
2021/10/09 13:02:00;;;;;;;8.60;4.03;;;25.20;76.70;;;;;;5015930;28;20109;-90
2021/10/09 13:04:25;;;;;;;11.07;4.30;;;25.50;77.00;;;;;;5015756;28;20060;-91
2021/10/09 13:06:51;;;;;;;10.90;4.75;;;26.20;76.00;;;;;;5015587;28;20037;-91
2021/10/09 13:09:17;;;;;;;8.93;4.93;;;26.30;75.30;;;;;;5015984;28;20030;-89
2021/10/09 13:11:48;;;;;;;7.82;4.38;;;26.00;74.80;;;;;;5034088;28;20029;-92
2021/10/09 13:14:14;;;;;;;15.95;4.93;;;26.40;75.20;;;;;;5017725;28;20030;-91
2021/10/09 13:16:39;;;;;;;8.48;4.53;;;26.50;76.20;;;;;;5017463;28;20029;-91
2021/10/09 13:19:06;;;;;;;10.00;5.55;;;25.90;78.20;;;;;;5018580;28;20022;-90
2021/10/09 13:21:32;;;;;;;14.57;5.00;;;25.60;79.60;;;;;;5018294;28;20032;-90
2021/10/09 13:23:58;;;;;;;7.45;4.45;;;25.10;80.70;;;;;;5015528;28;20100;-91
2021/10/09 13:26:23;;;;;;;9.40;5.57;;;25.20;81.30;;;;;;5015659;28;20026;-90
2021/10/09 13:28:49;;;;;;;8.30;5.53;;;24.40;81.80;;;;;;5015465;28;20029;-90
2021/10/09 13:31:15;;;;;;;8.88;5.45;;;24.30;82.80;;;;;;5015668;28;20060;-91
2021/10/09 13:33:40;;;;;;;10.70;6.00;;;25.50;80.60;;;;;;5018840;28;20481;-90
2021/10/09 13:36:07;;;;;;;12.60;5.50;;;26.00;78.70;;;;;;5036946;28;20030;-90
2021/10/09 13:38:34;;;;;;;8.77;5.43;;;25.60;78.80;;;;;;5036694;28;20523;-90
2021/10/09 13:41:00;;;;;;;13.43;5.38;;;25.50;78.90;;;;;;5019745;28;20018;-91
2021/10/09 13:43:25;;;;;;;8.48;5.85;;;25.50;78.30;;;;;;5022005;28;20026;-90
2021/10/09 13:45:51;;;;;;;12.45;5.68;;;24.90;79.70;;;;;;5039375;28;20034;-91
2021/10/09 13:48:17;;;;;;;10.52;5.20;;;25.20;79.40;;;;;;5020551;28;20025;-90
2021/10/09 13:50:47;;;;;;;10.32;5.85;;;25.20;79.30;;;;;;5018494;28;20055;-90
2021/10/09 13:53:12;;;;;;;10.43;5.47;;;25.60;78.20;;;;;;5018452;28;20037;-91
2021/10/09 13:55:40;;;;;;;21.00;10.07;;;25.40;79.10;;;;;;5035807;28;20041;-91
2021/10/09 13:58:06;;;;;;;12.60;5.75;;;25.10;79.40;;;;;;5018103;28;20026;-90
2021/10/09 14:00:31;;;;;;;10.32;5.38;;;25.00;80.20;;;;;;5018070;28;20167;-90
2021/10/09 14:02:58;;;;;;;11.18;5.28;;;25.30;79.20;;;;;;5017946;28;20049;-90
2021/10/09 14:05:25;;;;;;;12.45;5.97;;;25.40;79.00;;;;;;5017948;28;20018;-89
2021/10/09 14:07:51;;;;;;;10.73;5.30;;;25.00;79.20;;;;;;5018276;28;20025;-90
2021/10/09 14:10:17;;;;;;;12.77;5.65;;;24.70;79.30;;;;;;5018074;28;20061;-90
2021/10/09 14:12:43;;;;;;;10.88;6.70;;;25.30;79.30;;;;;;5017979;28;20025;-90
2021/10/09 14:15:10;;;;;;;8.25;5.82;;;25.20;79.50;;;;;;5017798;28;20543;-90
2021/10/09 14:17:35;;;;;;;11.80;5.47;;;25.10;78.80;;;;;;5017723;28;20041;-90
2021/10/09 14:20:03;;;;;;;8.50;5.78;;;24.90;79.00;;;;;;5017797;28;20028;-91
2021/10/09 14:22:30;;;;;;;12.93;5.47;;;24.70;79.90;;;;;;5017952;28;20029;-91
2021/10/09 14:24:56;;;;;;;14.43;5.22;;;25.10;79.30;;;;;;5035254;28;20053;-90
2021/10/09 14:27:23;;;;;;;13.65;5.43;;;25.50;77.30;;;;;;5017611;28;20445;-90
2021/10/09 14:29:49;;;;;;;7.85;4.88;;;25.20;78.00;;;;;;5017535;28;20025;-91
2021/10/09 14:32:15;;;;;;;13.38;5.68;;;25.00;78.20;;;;;;5035264;28;20438;-91
2021/10/09 14:34:41;;;;;;;13.82;6.53;;;24.50;79.90;;;;;;5017593;28;20111;-90
2021/10/09 14:37:06;;;;;;;9.68;5.25;;;24.10;80.30;;;;;;5017387;28;20029;-90
2021/10/09 14:39:32;;;;;;;10.75;5.70;;;24.20;80.70;;;;;;5034984;28;20029;-90
2021/10/09 14:41:59;;;;;;;10.00;5.93;;;24.20;80.60;;;;;;5017254;28;20026;-90
2021/10/09 14:44:24;;;;;;;8.77;5.50;;;23.60;80.70;;;;;;5035015;28;20192;-90
2021/10/09 14:50:10;;;;;;;12.35;7.03;;;22.90;83.80;;;;;;5035235;28;20033;-90
2021/10/09 15:19:20;;;;;;;10.63;5.80;;;20.60;90.10;;;;;;4973629;28;20022;-89